Time;durP1;ratioP1;P1;durP2;ratioP2;P2;SDS_P1;SDS_P2;PMS_P1;PMS_P2;Temp;Humidity;BMP_temperature;BMP_pressure;BME280_temperature;BME280_humidity;BME280_pressure;Samples;Min_cycle;Max_cycle;Signal;HPM_P1;HPM_P2
2021/09/12 00:01:15;;;;;;;21.00;9.27;;;;;;;;;;5069251;28;20457;-70
2021/09/12 00:03:41;;;;;;;25.83;9.38;;;;;;;;;;5070634;28;20024;-70
2021/09/12 00:06:07;;;;;;;25.73;9.07;;;;;;;;;;5073317;28;20040;-71
2021/09/12 00:08:33;;;;;;;22.60;9.20;;;;;;;;;;5069041;28;20122;-70
2021/09/12 00:10:59;;;;;;;26.17;10.07;;;;;;;;;;5070671;28;20025;-70
2021/09/12 00:13:25;;;;;;;22.02;9.45;;;;;;;;;;5071213;28;20021;-70
2021/09/12 00:15:51;;;;;;;26.35;10.18;;;;;;;;;;5069664;28;20077;-70
2021/09/12 00:18:17;;;;;;;17.38;8.18;;;;;;;;;;5070095;28;20080;-70
2021/09/12 00:20:43;;;;;;;24.83;9.20;;;;;;;;;;5068513;28;20044;-70
2021/09/12 00:23:09;;;;;;;21.02;9.18;;;;;;;;;;5072061;28;20039;-70
2021/09/12 00:25:35;;;;;;;24.25;9.23;;;;;;;;;;5071383;28;20031;-71
2021/09/12 00:28:01;;;;;;;23.23;9.95;;;;;;;;;;5071173;28;20025;-70
2021/09/12 00:30:27;;;;;;;19.65;9.85;;;;;;;;;;5072358;28;20020;-71
2021/09/12 00:32:53;;;;;;;26.67;10.15;;;;;;;;;;5072736;28;20043;-71
2021/09/12 00:35:19;;;;;;;21.05;10.00;;;;;;;;;;5072379;28;20040;-71
2021/09/12 00:37:47;;;;;;;25.17;9.80;;;;;;;;;;5072656;28;20029;-71
2021/09/12 00:40:14;;;;;;;18.55;9.45;;;;;;;;;;5072410;28;20059;-71
2021/09/12 00:42:40;;;;;;;21.10;10.15;;;;;;;;;;5072439;28;20021;-71
2021/09/12 00:45:06;;;;;;;25.15;10.32;;;;;;;;;;5072671;28;20081;-71
2021/09/12 00:47:32;;;;;;;24.23;10.05;;;;;;;;;;5072224;28;20078;-71
2021/09/12 00:49:58;;;;;;;29.15;9.05;;;;;;;;;;5071746;28;20035;-71
2021/09/12 00:52:24;;;;;;;20.92;9.15;;;;;;;;;;5071878;28;20016;-72
2021/09/12 00:54:51;;;;;;;21.80;10.45;;;;;;;;;;5070758;28;20044;-71
2021/09/12 00:57:17;;;;;;;26.67;10.27;;;;;;;;;;5071881;28;20414;-71
2021/09/12 00:59:44;;;;;;;30.25;10.43;;;;;;;;;;5072031;28;20062;-71
2021/09/12 01:02:11;;;;;;;23.20;10.25;;;;;;;;;;5071536;28;20454;-71
2021/09/12 01:04:37;;;;;;;25.10;9.70;;;;;;;;;;5073007;28;20024;-71
2021/09/12 01:07:04;;;;;;;28.30;11.75;;;;;;;;;;5069898;28;20056;-71
2021/09/12 01:09:33;;;;;;;22.45;9.80;;;;;;;;;;5071503;28;20032;-71
2021/09/12 01:12:00;;;;;;;22.58;9.55;;;;;;;;;;5066448;28;20115;-71
2021/09/12 01:14:26;;;;;;;34.30;10.23;;;;;;;;;;5069832;28;20028;-71
2021/09/12 01:16:53;;;;;;;22.17;9.73;;;;;;;;;;5070127;28;20025;-71
2021/09/12 01:19:19;;;;;;;23.25;9.35;;;;;;;;;;5072347;28;20020;-71
2021/09/12 01:21:45;;;;;;;17.88;8.52;;;;;;;;;;5072864;28;20028;-71
2021/09/12 01:24:11;;;;;;;25.15;8.73;;;;;;;;;;5068438;28;20020;-71
2021/09/12 01:26:37;;;;;;;25.42;9.30;;;;;;;;;;5071326;28;20054;-71
2021/09/12 01:29:04;;;;;;;18.08;8.13;;;;;;;;;;5071827;28;20072;-72
2021/09/12 01:31:32;;;;;;;22.58;9.25;;;;;;;;;;5057778;28;20174;-71
2021/09/12 01:34:00;;;;;;;17.60;7.93;;;;;;;;;;5064963;28;20035;-71
2021/09/12 01:36:27;;;;;;;17.48;8.10;;;;;;;;;;5062172;28;20444;-71
2021/09/12 01:38:53;;;;;;;21.52;8.90;;;;;;;;;;5071281;28;20078;-71
2021/09/12 01:41:19;;;;;;;24.27;9.18;;;;;;;;;;5071254;28;20024;-71
2021/09/12 01:43:49;;;;;;;18.80;8.90;;;;;;;;;;5071051;28;20029;-71
2021/09/12 01:46:16;;;;;;;22.50;8.65;;;;;;;;;;5066792;28;20016;-71
2021/09/12 01:48:42;;;;;;;17.80;8.10;;;;;;;;;;5070932;28;20021;-71
2021/09/12 01:51:09;;;;;;;24.40;8.75;;;;;;;;;;5071826;28;20069;-71
2021/09/12 01:53:35;;;;;;;18.73;8.48;;;;;;;;;;5067624;28;20031;-71
2021/09/12 01:56:01;;;;;;;22.67;8.25;;;;;;;;;;5067120;28;20312;-71
2021/09/12 01:58:27;;;;;;;25.23;9.95;;;;;;;;;;5070771;28;20028;-71
2021/09/12 02:00:53;;;;;;;23.98;8.13;;;;;;;;;;5072200;28;20549;-71
2021/09/12 02:03:19;;;;;;;23.25;8.48;;;;;;;;;;5070892;28;20082;-71
2021/09/12 02:05:45;;;;;;;22.35;8.90;;;;;;;;;;5071293;28;20031;-71
2021/09/12 02:08:11;;;;;;;19.05;8.48;;;;;;;;;;5069641;28;20544;-72
2021/09/12 02:10:37;;;;;;;23.70;8.55;;;;;;;;;;5070791;28;20024;-71
2021/09/12 02:13:03;;;;;;;27.55;9.60;;;;;;;;;;5072103;28;20024;-71
2021/09/12 02:15:30;;;;;;;24.45;9.98;;;;;;;;;;5071759;28;20032;-71
2021/09/12 02:17:56;;;;;;;19.17;8.65;;;;;;;;;;5070040;28;20115;-72
2021/09/12 02:20:22;;;;;;;17.80;8.02;;;;;;;;;;5070863;28;20028;-71
2021/09/12 02:22:48;;;;;;;21.50;8.98;;;;;;;;;;5069477;28;20025;-71
2021/09/12 02:25:14;;;;;;;19.13;8.52;;;;;;;;;;5071900;28;20039;-71
2021/09/12 02:27:40;;;;;;;25.27;10.43;;;;;;;;;;5069741;28;20108;-72
2021/09/12 02:30:07;;;;;;;27.08;9.65;;;;;;;;;;5071180;28;20081;-72
2021/09/12 02:32:33;;;;;;;24.00;10.00;;;;;;;;;;5072265;28;20028;-71
2021/09/12 02:34:59;;;;;;;20.23;10.45;;;;;;;;;;5070258;28;20032;-71
2021/09/12 02:37:26;;;;;;;23.55;9.98;;;;;;;;;;5068183;28;20051;-71
2021/09/12 02:39:52;;;;;;;25.27;11.63;;;;;;;;;;5070514;28;20108;-71
2021/09/12 02:42:19;;;;;;;23.73;10.55;;;;;;;;;;5071564;28;20020;-71
2021/09/12 02:44:45;;;;;;;32.05;10.77;;;;;;;;;;5069850;28;20108;-72
2021/09/12 02:47:11;;;;;;;33.58;11.25;;;;;;;;;;5070422;28;20082;-71
2021/09/12 02:49:37;;;;;;;31.45;13.32;;;;;;;;;;5070239;28;20024;-71
2021/09/12 02:52:03;;;;;;;36.58;13.07;;;;;;;;;;5068484;28;20028;-71
2021/09/12 02:54:29;;;;;;;30.90;14.40;;;;;;;;;;5071097;28;20029;-71
2021/09/12 02:56:55;;;;;;;39.33;15.10;;;;;;;;;;5069947;28;20031;-71
2021/09/12 02:59:21;;;;;;;38.78;16.25;;;;;;;;;;5070007;28;20048;-71
2021/09/12 03:01:47;;;;;;;38.15;14.88;;;;;;;;;;5071145;28;20039;-71
2021/09/12 03:04:13;;;;;;;36.17;15.02;;;;;;;;;;5066811;28;20036;-71
2021/09/12 03:06:39;;;;;;;35.90;16.42;;;;;;;;;;5066232;28;20033;-71
2021/09/12 03:09:05;;;;;;;42.45;16.27;;;;;;;;;;5065943;28;20036;-72
2021/09/12 03:11:32;;;;;;;38.80;17.58;;;;;;;;;;5062643;28;20020;-71
2021/09/12 03:13:58;;;;;;;39.92;16.35;;;;;;;;;;5069582;28;20514;-71
2021/09/12 03:16:24;;;;;;;40.30;15.55;;;;;;;;;;5068275;28;20036;-71
2021/09/12 03:18:51;;;;;;;36.28;14.90;;;;;;;;;;5067911;28;20498;-71
2021/09/12 03:21:18;;;;;;;31.98;14.25;;;;;;;;;;5058185;28;20036;-72
2021/09/12 03:23:44;;;;;;;36.28;13.88;;;;;;;;;;5070313;28;20024;-71
2021/09/12 03:26:10;;;;;;;32.50;12.73;;;;;;;;;;5069680;28;20028;-71
2021/09/12 03:28:36;;;;;;;29.15;13.88;;;;;;;;;;5069622;28;20020;-71
2021/09/12 03:31:02;;;;;;;26.23;12.75;;;;;;;;;;5062482;28;20216;-72
2021/09/12 03:33:28;;;;;;;30.33;13.20;;;;;;;;;;5070699;28;20017;-71
2021/09/12 03:35:54;;;;;;;31.90;14.25;;;;;;;;;;5068347;28;20036;-72
2021/09/12 03:38:21;;;;;;;28.50;11.25;;;;;;;;;;5069337;28;20487;-72
2021/09/12 03:40:47;;;;;;;34.63;13.25;;;;;;;;;;5070466;28;20024;-71
2021/09/12 03:43:13;;;;;;;23.63;12.20;;;;;;;;;;5069998;28;20081;-72
2021/09/12 03:45:39;;;;;;;29.55;12.95;;;;;;;;;;5067638;28;20028;-71
2021/09/12 03:48:06;;;;;;;43.28;14.98;;;;;;;;;;5069266;28;20036;-71
2021/09/12 03:50:32;;;;;;;29.70;13.65;;;;;;;;;;5070144;28;20074;-71
2021/09/12 03:52:58;;;;;;;26.67;13.30;;;;;;;;;;5065372;28;20047;-71
2021/09/12 03:55:24;;;;;;;27.92;13.63;;;;;;;;;;5068344;28;20170;-71
2021/09/12 03:57:50;;;;;;;32.08;13.40;;;;;;;;;;5066988;28;20039;-71
2021/09/12 04:00:17;;;;;;;31.83;13.60;;;;;;;;;;5069401;28;20040;-72
2021/09/12 04:02:43;;;;;;;29.33;13.10;;;;;;;;;;5067132;28;20070;-71
2021/09/12 04:05:09;;;;;;;29.60;12.90;;;;;;;;;;5069821;28;20430;-71
2021/09/12 04:07:35;;;;;;;29.23;13.25;;;;;;;;;;5069048;28;20020;-72
2021/09/12 04:10:01;;;;;;;32.42;13.25;;;;;;;;;;5068518;28;20090;-72
2021/09/12 04:12:27;;;;;;;25.08;12.32;;;;;;;;;;5070613;28;20375;-71
2021/09/12 04:14:54;;;;;;;29.02;12.95;;;;;;;;;;5069218;28;20501;-71
2021/09/12 04:17:20;;;;;;;27.67;12.23;;;;;;;;;;5069442;28;20037;-72
2021/09/12 04:19:46;;;;;;;32.45;15.00;;;;;;;;;;5069309;28;20042;-72
2021/09/12 04:22:12;;;;;;;29.65;14.57;;;;;;;;;;5067811;28;20035;-71
2021/09/12 04:24:38;;;;;;;31.20;13.70;;;;;;;;;;5067437;28;20063;-72
2021/09/12 04:27:05;;;;;;;33.53;14.13;;;;;;;;;;5068734;28;20044;-71
2021/09/12 04:29:31;;;;;;;39.30;14.77;;;;;;;;;;5067089;28;20486;-72
2021/09/12 04:31:57;;;;;;;31.70;14.48;;;;;;;;;;5053497;28;20025;-71
2021/09/12 04:34:23;;;;;;;34.30;14.13;;;;;;;;;;5062089;28;20028;-71
2021/09/12 04:36:49;;;;;;;31.83;14.55;;;;;;;;;;5068960;28;20106;-71
2021/09/12 04:39:15;;;;;;;33.83;14.27;;;;;;;;;;5067433;28;20024;-72
2021/09/12 04:41:41;;;;;;;33.50;15.43;;;;;;;;;;5070553;28;20032;-72
2021/09/12 04:44:07;;;;;;;34.47;15.40;;;;;;;;;;5068717;28;20615;-71
2021/09/12 04:46:33;;;;;;;38.72;14.15;;;;;;;;;;5063515;28;20256;-71
2021/09/12 04:48:59;;;;;;;35.85;16.33;;;;;;;;;;5059095;28;20025;-72
2021/09/12 04:51:25;;;;;;;36.40;16.83;;;;;;;;;;5071577;28;20029;-71
2021/09/12 04:53:52;;;;;;;36.63;16.63;;;;;;;;;;5072585;28;20106;-72
2021/09/12 04:56:18;;;;;;;36.13;17.77;;;;;;;;;;5072396;28;20040;-71
2021/09/12 04:58:44;;;;;;;48.60;18.13;;;;;;;;;;5073288;28;20024;-72
2021/09/12 05:01:10;;;;;;;44.10;19.33;;;;;;;;;;5070348;28;20163;-71
2021/09/12 05:03:36;;;;;;;37.85;18.85;;;;;;;;;;5073909;28;20232;-72
2021/09/12 05:06:02;;;;;;;38.03;18.58;;;;;;;;;;5071040;28;20652;-71
2021/09/12 05:08:28;;;;;;;41.15;19.00;;;;;;;;;;5073329;28;20481;-72
2021/09/12 05:10:54;;;;;;;43.08;18.90;;;;;;;;;;5072548;28;20266;-71
2021/09/12 05:13:20;;;;;;;41.63;19.45;;;;;;;;;;5071920;28;20025;-71
2021/09/12 05:15:46;;;;;;;38.55;18.08;;;;;;;;;;5072326;28;20021;-71
2021/09/12 05:18:12;;;;;;;24.95;15.35;;;;;;;;;;5072053;28;20107;-72
2021/09/12 05:20:39;;;;;;;38.92;17.38;;;;;;;;;;5069925;28;20031;-71
2021/09/12 05:23:06;;;;;;;38.58;16.45;;;;;;;;;;5072084;28;20790;-72
2021/09/12 05:25:32;;;;;;;33.15;14.77;;;;;;;;;;5072299;28;20021;-72
2021/09/12 05:27:59;;;;;;;31.10;14.95;;;;;;;;;;5071291;28;20079;-71
2021/09/12 05:30:25;;;;;;;33.17;15.45;;;;;;;;;;5072436;28;20031;-72
2021/09/12 05:32:51;;;;;;;36.00;16.23;;;;;;;;;;5072960;28;20039;-72
2021/09/12 05:35:17;;;;;;;28.25;13.73;;;;;;;;;;5066997;28;20036;-72
2021/09/12 05:37:44;;;;;;;30.77;14.85;;;;;;;;;;5071473;28;20082;-72
2021/09/12 05:40:10;;;;;;;33.45;13.85;;;;;;;;;;5072635;28;20112;-72
2021/09/12 05:42:36;;;;;;;30.13;15.00;;;;;;;;;;5072699;28;20027;-71
2021/09/12 05:45:04;;;;;;;35.13;15.05;;;;;;;;;;5071183;28;20078;-72
2021/09/12 05:47:30;;;;;;;38.58;17.27;;;;;;;;;;5071371;28;20062;-71
2021/09/12 05:49:56;;;;;;;32.05;15.02;;;;;;;;;;5071833;28;20042;-72
2021/09/12 05:52:22;;;;;;;28.17;13.85;;;;;;;;;;5071469;28;20051;-71
2021/09/12 05:54:48;;;;;;;35.35;14.18;;;;;;;;;;5070936;28;20085;-72
2021/09/12 05:57:14;;;;;;;28.17;14.38;;;;;;;;;;5071655;28;20033;-72
2021/09/12 05:59:40;;;;;;;30.30;14.82;;;;;;;;;;5072489;28;20048;-71
2021/09/12 06:02:06;;;;;;;31.15;14.48;;;;;;;;;;5070373;28;20024;-72
2021/09/12 06:04:32;;;;;;;28.40;14.88;;;;;;;;;;5070971;28;20012;-71
2021/09/12 06:06:58;;;;;;;27.63;14.73;;;;;;;;;;5067100;28;20012;-71
2021/09/12 06:09:25;;;;;;;30.17;14.70;;;;;;;;;;5061544;28;20029;-71
2021/09/12 06:11:51;;;;;;;29.38;14.68;;;;;;;;;;5071105;28;20040;-71
2021/09/12 06:14:18;;;;;;;40.20;15.52;;;;;;;;;;5063196;28;20025;-72
2021/09/12 06:16:44;;;;;;;30.15;13.23;;;;;;;;;;5070681;28;20089;-71
2021/09/12 06:19:10;;;;;;;28.05;14.30;;;;;;;;;;5071231;28;20028;-71
2021/09/12 06:21:36;;;;;;;30.23;13.85;;;;;;;;;;5070159;28;20024;-71
2021/09/12 06:24:02;;;;;;;34.13;14.70;;;;;;;;;;5070070;28;20086;-71
2021/09/12 06:26:28;;;;;;;29.90;14.18;;;;;;;;;;5070453;28;20020;-71
2021/09/12 06:28:54;;;;;;;30.58;16.30;;;;;;;;;;5069978;28;20731;-71
2021/09/12 06:31:21;;;;;;;29.55;14.43;;;;;;;;;;5070445;28;20044;-72
2021/09/12 06:33:47;;;;;;;31.33;15.80;;;;;;;;;;5069848;28;20024;-71
2021/09/12 06:36:13;;;;;;;32.47;16.33;;;;;;;;;;5066458;28;20093;-71
2021/09/12 06:38:39;;;;;;;37.47;16.08;;;;;;;;;;5069999;28;20036;-71
2021/09/12 06:41:05;;;;;;;27.45;16.10;;;;;;;;;;5071580;28;20054;-71
2021/09/12 06:43:31;;;;;;;28.25;15.57;;;;;;;;;;5070915;28;20020;-71
2021/09/12 06:45:57;;;;;;;35.28;16.80;;;;;;;;;;5069914;28;20021;-72
2021/09/12 06:48:23;;;;;;;36.78;17.05;;;;;;;;;;5071006;28;20520;-71
2021/09/12 06:50:49;;;;;;;32.30;15.95;;;;;;;;;;5070807;28;20028;-71
2021/09/12 06:53:15;;;;;;;29.63;16.02;;;;;;;;;;5070032;28;20036;-71
2021/09/12 06:55:42;;;;;;;33.83;16.40;;;;;;;;;;5069870;28;20020;-71
2021/09/12 06:58:08;;;;;;;39.72;17.77;;;;;;;;;;5070547;28;20036;-71
2021/09/12 07:00:34;;;;;;;27.50;16.45;;;;;;;;;;5070610;28;20021;-71
2021/09/12 07:03:01;;;;;;;38.50;16.38;;;;;;;;;;5069963;28;20031;-71
2021/09/12 07:05:27;;;;;;;37.92;17.05;;;;;;;;;;5070209;28;20031;-72
2021/09/12 07:07:53;;;;;;;35.63;16.90;;;;;;;;;;5067780;28;20017;-71
2021/09/12 07:10:19;;;;;;;34.00;16.38;;;;;;;;;;5069719;28;20029;-71
2021/09/12 07:12:46;;;;;;;31.52;16.75;;;;;;;;;;5068777;28;20055;-72
2021/09/12 07:15:12;;;;;;;33.10;17.48;;;;;;;;;;5068824;28;20567;-72
2021/09/12 07:17:38;;;;;;;31.63;16.90;;;;;;;;;;5066903;28;20055;-72
2021/09/12 07:20:04;;;;;;;34.33;16.52;;;;;;;;;;5068307;28;20082;-72
2021/09/12 07:22:30;;;;;;;30.67;16.85;;;;;;;;;;5068872;28;20059;-71
2021/09/12 07:24:57;;;;;;;35.63;18.77;;;;;;;;;;5066728;28;20057;-72
2021/09/12 07:27:23;;;;;;;32.20;15.95;;;;;;;;;;5066591;28;20119;-71
2021/09/12 07:29:49;;;;;;;36.78;16.92;;;;;;;;;;5067062;28;20101;-71
2021/09/12 07:32:15;;;;;;;38.97;18.58;;;;;;;;;;5070117;28;20071;-71
2021/09/12 07:34:41;;;;;;;34.42;16.95;;;;;;;;;;5068490;28;20123;-71
2021/09/12 07:37:07;;;;;;;35.40;16.50;;;;;;;;;;5065391;28;20047;-72
2021/09/12 07:39:33;;;;;;;33.38;16.95;;;;;;;;;;5067537;28;20021;-72
2021/09/12 07:42:00;;;;;;;31.92;17.17;;;;;;;;;;5064120;28;20025;-72
2021/09/12 07:44:27;;;;;;;38.58;15.57;;;;;;;;;;5067377;28;20020;-72
2021/09/12 07:46:53;;;;;;;32.45;18.75;;;;;;;;;;5066392;28;20029;-72
2021/09/12 07:49:19;;;;;;;40.80;16.85;;;;;;;;;;5067395;28;20026;-72
2021/09/12 07:51:45;;;;;;;35.42;15.57;;;;;;;;;;5064653;28;20038;-72
2021/09/12 07:54:11;;;;;;;31.42;15.95;;;;;;;;;;5064472;28;20059;-71
2021/09/12 07:56:37;;;;;;;27.35;15.65;;;;;;;;;;5061142;28;20024;-72
2021/09/12 07:59:03;;;;;;;33.45;16.55;;;;;;;;;;5083054;28;20490;-71
2021/09/12 08:01:29;;;;;;;29.10;16.70;;;;;;;;;;5059163;28;20020;-72
2021/09/12 08:03:56;;;;;;;29.27;14.77;;;;;;;;;;5063496;28;20028;-72
2021/09/12 08:06:23;;;;;;;29.98;15.48;;;;;;;;;;5066285;28;20406;-72
2021/09/12 08:08:49;;;;;;;26.13;13.82;;;;;;;;;;5065626;28;20029;-70
2021/09/12 08:11:15;;;;;;;30.17;14.93;;;;;;;;;;5063535;28;20024;-68
2021/09/12 08:13:41;;;;;;;29.20;16.80;;;;;;;;;;5063433;28;20024;-72
2021/09/12 08:16:07;;;;;;;29.00;13.65;;;;;;;;;;5061882;28;20048;-72
2021/09/12 08:18:34;;;;;;;24.65;13.70;;;;;;;;;;5060236;28;20105;-72
2021/09/12 08:21:00;;;;;;;27.30;12.77;;;;;;;;;;5059694;28;20025;-72
2021/09/12 08:23:26;;;;;;;28.25;14.90;;;;;;;;;;5057761;28;20028;-72
2021/09/12 08:25:52;;;;;;;22.25;13.43;;;;;;;;;;5053373;28;20486;-71
2021/09/12 08:28:18;;;;;;;23.30;13.32;;;;;;;;;;5063063;28;20596;-71
2021/09/12 08:30:44;;;;;;;24.00;13.80;;;;;;;;;;5063718;28;20029;-72
2021/09/12 08:33:14;;;;;;;25.95;13.93;;;;;;;;;;5062938;28;20024;-71
2021/09/12 08:35:41;;;;;;;29.77;13.30;;;;;;;;;;5062886;28;20053;-71
2021/09/12 08:38:07;;;;;;;17.60;11.75;;;;;;;;;;5062743;28;20172;-72
2021/09/12 08:40:34;;;;;;;19.52;11.55;;;;;;;;;;5059936;28;20074;-71
2021/09/12 08:43:00;;;;;;;18.50;12.25;;;;;;;;;;5064967;28;20024;-72
2021/09/12 08:45:26;;;;;;;22.48;12.95;;;;;;;;;;5063901;28;20029;-72
2021/09/12 08:47:53;;;;;;;18.92;12.85;;;;;;;;;;5060219;28;20024;-71
2021/09/12 08:50:19;;;;;;;19.73;12.30;;;;;;;;;;5063760;28;20363;-71
2021/09/12 08:52:45;;;;;;;16.77;12.57;;;;;;;;;;5064517;28;20462;-71
2021/09/12 08:55:12;;;;;;;17.30;11.05;;;;;;;;;;5064461;28;20039;-71
2021/09/12 08:57:51;;;;;;;18.38;11.18;;;;;;;;;;5059112;28;20491;-70
2021/09/12 09:00:21;;;;;;;16.92;10.63;;;;;;;;;;5064208;28;20032;-71
2021/09/12 09:02:47;;;;;;;17.02;11.15;;;;;;;;;;5063635;28;20028;-71
2021/09/12 09:05:13;;;;;;;15.88;10.77;;;;;;;;;;5060148;28;20029;-70
2021/09/12 09:07:39;;;;;;;15.50;10.50;;;;;;;;;;5062148;28;20072;-71
2021/09/12 09:10:18;;;;;;;14.20;10.18;;;;;;;;;;5060836;28;20029;-70
2021/09/12 09:12:44;;;;;;;16.30;10.38;;;;;;;;;;5065078;28;20510;-70
2021/09/12 09:15:15;;;;;;;16.67;10.13;;;;;;;;;;5065500;28;20520;-71
2021/09/12 09:17:52;;;;;;;16.92;10.25;;;;;;;;;;5059574;28;21103;-70
2021/09/12 09:20:20;;;;;;;15.27;9.45;;;;;;;;;;5063100;28;20029;-71
2021/09/12 09:22:50;;;;;;;20.27;9.18;;;;;;;;;;5059965;28;20074;-72
2021/09/12 09:25:19;;;;;;;13.32;8.55;;;;;;;;;;5062044;28;20024;-71
2021/09/12 09:27:56;;;;;;;9.93;6.57;;;;;;;;;;5052063;28;20585;-71
2021/09/12 09:30:22;;;;;;;11.80;5.53;;;;;;;;;;5061222;28;20017;-71
2021/09/12 09:32:48;;;;;;;6.85;3.85;;;;;;;;;;5057021;28;20017;-71
2021/09/12 09:35:22;;;;;;;9.65;4.47;;;;;;;;;;5063519;28;20040;-71
2021/09/12 09:37:49;;;;;;;7.30;3.88;;;;;;;;;;5063374;28;20071;-71
2021/09/12 09:40:15;;;;;;;7.82;4.07;;;;;;;;;;5067480;28;20032;-71
2021/09/12 09:42:42;;;;;;;8.27;3.63;;;;;;;;;;5067716;28;20510;-71
2021/09/12 09:45:08;;;;;;;7.13;3.80;;;;;;;;;;5063778;28;20024;-71
2021/09/12 09:47:35;;;;;;;6.90;4.05;;;;;;;;;;5064771;28;20032;-71
2021/09/12 09:50:10;;;;;;;5.55;3.95;;;;;;;;;;5064804;28;20286;-71
2021/09/12 09:52:36;;;;;;;8.43;3.60;;;;;;;;;;5064093;28;20044;-71
2021/09/12 09:55:04;;;;;;;7.60;3.35;;;;;;;;;;5070682;28;20036;-71
2021/09/12 09:57:30;;;;;;;12.52;3.45;;;;;;;;;;5067676;28;20055;-71
2021/09/12 09:59:57;;;;;;;8.48;2.80;;;;;;;;;;5065346;28;20098;-72
2021/09/12 10:02:23;;;;;;;7.07;2.60;;;;;;;;;;5064164;28;20052;-70
2021/09/12 10:04:50;;;;;;;5.18;2.20;;;;;;;;;;5064722;28;20036;-71
2021/09/12 10:07:16;;;;;;;9.68;2.33;;;;;;;;;;5058554;28;20060;-70
2021/09/12 10:09:42;;;;;;;6.60;2.50;;;;;;;;;;5059593;28;20045;-69
2021/09/12 10:12:12;;;;;;;4.55;2.20;;;;;;;;;;5058326;28;20039;-71
2021/09/12 10:15:10;;;;;;;10.88;3.33;;;;;;;;;;5060739;28;20107;-70
2021/09/12 10:17:37;;;;;;;7.50;2.63;;;;;;;;;;5031404;28;20040;-71
2021/09/12 10:20:07;;;;;;;6.35;2.67;;;;;;;;;;5059615;28;20060;-71
2021/09/12 10:22:48;;;;;;;6.80;2.67;;;;;;;;;;5064539;28;20037;-71
2021/09/12 10:25:15;;;;;;;5.32;2.35;;;;;;;;;;5061567;28;20119;-71
2021/09/12 10:27:48;;;;;;;7.88;2.72;;;;;;;;;;5057912;28;20009;-72
2021/09/12 10:30:38;;;;;;;6.78;2.63;;;;;;;;;;5061725;28;20021;-71
2021/09/12 10:33:07;;;;;;;6.72;2.63;;;;;;;;;;5061601;28;20020;-70
2021/09/12 10:35:37;;;;;;;6.80;3.00;;;;;;;;;;5061661;28;20089;-71
2021/09/12 10:38:13;;;;;;;5.18;2.75;;;;;;;;;;5061569;28;20071;-71
2021/09/12 10:40:49;;;;;;;5.72;2.50;;;;;;;;;;5070554;28;20087;-71
2021/09/12 10:43:27;;;;;;;6.63;2.50;;;;;;;;;;5063410;28;20016;-72
2021/09/12 10:46:02;;;;;;;8.18;2.78;;;;;;;;;;5063737;28;20046;-73
2021/09/12 10:48:32;;;;;;;5.43;2.60;;;;;;;;;;5063816;28;20028;-71
2021/09/12 10:50:59;;;;;;;6.65;3.10;;;;;;;;;;5068430;28;20024;-71
2021/09/12 10:53:44;;;;;;;5.45;2.95;;;;;;;;;;5072536;28;20113;-70
2021/09/12 10:56:13;;;;;;;5.10;2.85;;;;;;;;;;5059333;28;20027;-70
2021/09/12 10:58:39;;;;;;;8.93;3.15;;;;;;;;;;5062302;28;20036;-69
2021/09/12 11:01:06;;;;;;;6.60;3.80;;;;;;;;;;5063460;28;20564;-71
2021/09/12 11:03:35;;;;;;;7.32;3.72;;;;;;;;;;5065177;28;20493;-70
2021/09/12 11:06:01;;;;;;;6.88;3.00;;;;;;;;;;5063682;28;20020;-71
2021/09/12 11:08:37;;;;;;;4.97;2.75;;;;;;;;;;5063371;28;20078;-71
2021/09/12 11:11:05;;;;;;;7.25;3.25;;;;;;;;;;5063582;28;20025;-70
2021/09/12 11:13:31;;;;;;;6.60;3.40;;;;;;;;;;5063308;28;20036;-70
2021/09/12 11:16:11;;;;;;;8.68;3.58;;;;;;;;;;5060476;28;20028;-71
2021/09/12 11:18:41;;;;;;;6.38;3.53;;;;;;;;;;5062734;28;20029;-72
2021/09/12 11:21:07;;;;;;;6.28;3.67;;;;;;;;;;5063731;28;20067;-71
2021/09/12 11:23:35;;;;;;;6.53;4.00;;;;;;;;;;5068335;28;20525;-70
2021/09/12 11:26:01;;;;;;;9.18;4.32;;;;;;;;;;5065508;28;20021;-71
2021/09/12 11:28:28;;;;;;;7.90;4.72;;;;;;;;;;5070221;28;20029;-72
2021/09/12 11:30:54;;;;;;;8.80;5.05;;;;;;;;;;5068436;28;20028;-72
2021/09/12 11:33:20;;;;;;;9.00;4.68;;;;;;;;;;5081465;28;20033;-71
2021/09/12 11:36:03;;;;;;;9.02;5.07;;;;;;;;;;5072474;28;20047;-71
2021/09/12 11:38:29;;;;;;;12.63;7.38;;;;;;;;;;5069835;28;20126;-72
2021/09/12 11:40:57;;;;;;;13.85;7.78;;;;;;;;;;5069277;28;20020;-72
2021/09/12 11:43:23;;;;;;;11.63;7.32;;;;;;;;;;5069208;28;20024;-70
2021/09/12 11:46:05;;;;;;;12.90;8.02;;;;;;;;;;5066748;28;20039;-72
2021/09/12 11:48:32;;;;;;;11.00;7.55;;;;;;;;;;5054272;28;20025;-71
2021/09/12 11:50:58;;;;;;;10.55;6.60;;;;;;;;;;5077862;28;20024;-71
2021/09/12 11:53:28;;;;;;;7.70;5.80;;;;;;;;;;5069761;28;20395;-71
2021/09/12 11:55:54;;;;;;;15.73;5.25;;;;;;;;;;5065137;28;20589;-71
2021/09/12 11:58:20;;;;;;;9.50;5.28;;;;;;;;;;5068449;28;20038;-70
2021/09/12 12:00:47;;;;;;;11.65;5.35;;;;;;;;;;5067457;28;20029;-71
2021/09/12 12:03:17;;;;;;;9.88;5.57;;;;;;;;;;5067819;28;20016;-71
2021/09/12 12:05:44;;;;;;;13.43;5.68;;;;;;;;;;5066346;28;20035;-71
2021/09/12 12:08:15;;;;;;;7.63;5.45;;;;;;;;;;5068849;28;20047;-71
2021/09/12 12:10:42;;;;;;;11.48;6.32;;;;;;;;;;5067999;28;20032;-72
2021/09/12 12:13:08;;;;;;;13.52;5.95;;;;;;;;;;5068896;28;20021;-72
2021/09/12 12:15:35;;;;;;;9.13;6.28;;;;;;;;;;5068533;28;20282;-71
2021/09/12 12:18:08;;;;;;;9.15;5.90;;;;;;;;;;5067412;28;20025;-72
2021/09/12 12:20:34;;;;;;;8.50;5.50;;;;;;;;;;5066951;28;20020;-71
2021/09/12 12:23:17;;;;;;;12.15;6.68;;;;;;;;;;5069364;28;20076;-70
2021/09/12 12:25:44;;;;;;;10.90;7.28;;;;;;;;;;5062901;28;20498;-72
2021/09/12 12:28:20;;;;;;;12.25;7.22;;;;;;;;;;5068824;28;20074;-71
2021/09/12 12:31:07;;;;;;;10.18;6.80;;;;;;;;;;5068097;28;20033;-73
2021/09/12 12:33:33;;;;;;;9.65;6.82;;;;;;;;;;5068976;28;20028;-70
2021/09/12 12:36:06;;;;;;;10.82;6.50;;;;;;;;;;5064833;28;20290;-71
2021/09/12 12:38:32;;;;;;;11.13;6.65;;;;;;;;;;5067162;28;20032;-71
2021/09/12 12:41:06;;;;;;;10.98;7.32;;;;;;;;;;5069109;28;20594;-71
2021/09/12 12:43:32;;;;;;;12.65;6.30;;;;;;;;;;5069884;28;20024;-72
2021/09/12 12:45:58;;;;;;;8.98;6.00;;;;;;;;;;5065358;28;20111;-72
2021/09/12 12:48:24;;;;;;;10.40;5.97;;;;;;;;;;5069348;28;20098;-71
2021/09/12 12:50:50;;;;;;;10.60;7.07;;;;;;;;;;5068536;28;20107;-72
2021/09/12 12:53:29;;;;;;;11.25;6.85;;;;;;;;;;5069423;28;20021;-72
2021/09/12 12:55:57;;;;;;;10.63;6.72;;;;;;;;;;5066035;28;20278;-72
2021/09/12 12:58:23;;;;;;;11.07;6.88;;;;;;;;;;5067569;28;20565;-72
2021/09/12 13:00:53;;;;;;;11.23;7.90;;;;;;;;;;5066936;28;20142;-71
2021/09/12 13:03:20;;;;;;;10.15;7.72;;;;;;;;;;5061541;28;20502;-71
2021/09/12 13:05:47;;;;;;;9.48;8.18;;;;;;;;;;5063042;28;20031;-71
2021/09/12 13:08:13;;;;;;;11.18;8.15;;;;;;;;;;5067799;28;20020;-71
2021/09/12 13:10:40;;;;;;;16.38;10.23;;;;;;;;;;5066478;28;20037;-71
2021/09/12 13:13:07;;;;;;;11.55;8.43;;;;;;;;;;5071899;28;20033;-71
2021/09/12 13:15:33;;;;;;;12.70;8.95;;;;;;;;;;5067703;28;20029;-72
2021/09/12 13:17:59;;;;;;;13.52;8.43;;;;;;;;;;5069207;28;20494;-71
2021/09/12 13:20:25;;;;;;;10.38;7.80;;;;;;;;;;5068460;28;20478;-72
2021/09/12 13:22:51;;;;;;;10.85;7.80;;;;;;;;;;5071814;28;20402;-71
2021/09/12 13:25:17;;;;;;;11.32;8.10;;;;;;;;;;5070113;28;20070;-72
2021/09/12 13:27:43;;;;;;;9.38;7.35;;;;;;;;;;5070015;28;20032;-71
2021/09/12 13:30:10;;;;;;;12.52;7.65;;;;;;;;;;5071770;28;20581;-72
2021/09/12 13:32:36;;;;;;;11.38;7.93;;;;;;;;;;5071359;28;20494;-72
2021/09/12 13:35:02;;;;;;;13.93;7.30;;;;;;;;;;5078966;28;20465;-72
2021/09/12 13:37:28;;;;;;;12.65;8.10;;;;;;;;;;5069702;28;20498;-71
2021/09/12 13:39:54;;;;;;;12.60;7.28;;;;;;;;;;5065369;28;20116;-71
2021/09/12 13:42:20;;;;;;;12.45;6.13;;;;;;;;;;5070624;28;20025;-71
2021/09/12 13:44:46;;;;;;;9.52;7.13;;;;;;;;;;5070393;28;20040;-72
2021/09/12 13:47:12;;;;;;;12.85;7.03;;;;;;;;;;5067501;28;20032;-71
2021/09/12 13:49:38;;;;;;;11.48;6.20;;;;;;;;;;5066465;28;20044;-71
2021/09/12 13:52:04;;;;;;;11.15;8.07;;;;;;;;;;5071548;28;20041;-72
2021/09/12 13:54:31;;;;;;;10.63;7.18;;;;;;;;;;5070808;28;20512;-72
2021/09/12 13:56:57;;;;;;;10.43;7.30;;;;;;;;;;5068358;28;20085;-72
2021/09/12 13:59:23;;;;;;;11.73;6.00;;;;;;;;;;5067917;28;20024;-72
2021/09/12 14:01:49;;;;;;;9.48;7.32;;;;;;;;;;5068598;28;20051;-72
2021/09/12 14:04:15;;;;;;;12.05;7.40;;;;;;;;;;5067962;28;20085;-72
2021/09/12 14:06:41;;;;;;;8.93;6.35;;;;;;;;;;5067635;28;20118;-71
2021/09/12 14:09:07;;;;;;;8.98;6.28;;;;;;;;;;5071567;28;20036;-73
2021/09/12 14:11:33;;;;;;;10.85;7.10;;;;;;;;;;5071123;28;20017;-72
2021/09/12 14:13:59;;;;;;;11.93;6.30;;;;;;;;;;5071361;28;20122;-72
2021/09/12 14:16:25;;;;;;;8.55;5.93;;;;;;;;;;5065174;28;20013;-73
2021/09/12 14:18:51;;;;;;;11.00;6.35;;;;;;;;;;5068792;28;20122;-72
2021/09/12 14:21:17;;;;;;;8.18;5.97;;;;;;;;;;5070603;28;20054;-71
2021/09/12 14:23:47;;;;;;;9.77;5.68;;;;;;;;;;5068094;28;20051;-71
2021/09/12 14:26:13;;;;;;;13.70;5.53;;;;;;;;;;5058509;28;20400;-72